Louisa, Kentucky
Current Conditions -  °F | °C
As of 7:51 AM on Sunday 21 Dec 2014 (Local Time) from KHTS Reporting Station
Overcast Overcast  
Wind Chill: 26°   Ceiling: 1700
Heat Index: 31°   Visibility: 9mi
Dew Point: 27°   Wind: 5mph
Humidity: 85%   Direction: 60°ENE
Pressure: 30.31"   Gusts: NA
Location:  38.11°N, 82.6°W
Report Text: KHTS 211251Z 06004KT 9SM OVC017 M01/M03 A3031 RMK AO2 SLP270 T10061028
Loading
Personal Weather Stations






























Interactive Weather Map New forecast layout! Learn more

10-Day Weather Forecast

Advertisements
Track Severe Weather on mobile